Flight Track Log - Related Links

Times and Time Zones

All times are in EDT time to prevent confusion due to time zone crossing. See the SKW5476 flight status page for this flight to view local times or setup timezone preferences in your user account.

Time Position Orientation Groundspeed Altitude Reporting Facility
EDT Latitude Longitude Course Direction KTS MPH feet Rate Location/Type
Mon 03:08:05 PM 37.6500 -122.3667 North 138 159 1,100  Level Northern Cal TRACON
Mon 03:09:17 PM 37.6967 -122.3653 North 163 188 2,900 1,444 Climbing Oakland Center
Mon 03:10:18 PM 37.7458 -122.3686 357° North 180 207 4,300 1,463 Climbing Oakland Center
Mon 03:11:00 PM 37.8282 -122.3658 353° North  Level FlightAware Approximate
Mon 03:11:20 PM 37.7972 -122.3789 351° North 187 215 5,900  Level Oakland Center
Mon 03:12:00 PM 37.8988 -122.3718 345° North  Level FlightAware Approximate
Mon 03:12:21 PM 37.8497 -122.3817 358° North 190 219 7,400  Level Oakland Center
Mon 03:13:00 PM 37.9650 -122.3667 North  Level FlightAware Approximate
Mon 03:13:23 PM 37.9042 -122.3819 360° North 195 224 8,800  Level Oakland Center
Mon 03:14:24 PM 37.9611 -122.3819 360° North 203 234 9,900 541 Climbing Oakland Center
Mon 03:15:25 PM 38.0250 -122.3792 North 225 259 9,900 390 Level Oakland Center
Mon 03:16:27 PM 38.1031 -122.3672 North 234 269 10,700 683 Climbing Oakland Center
Mon 03:17:28 PM 38.1642 -122.3553 North 224 258 11,300 541 Climbing Oakland Center
Mon 03:18:29 PM 38.2261 -122.3447 North 224 258 11,800 293 Climbing Oakland Center
Mon 03:19:31 PM 38.2892 -122.3325 North 227 261 11,900 98 Climbing Oakland Center
Mon 03:20:32 PM 38.3561 -122.3211 North 240 276 12,000 146 Climbing Oakland Center
Mon 03:21:34 PM 38.4231 -122.3089 North 242 278 12,200 439 Climbing Oakland Center
Mon 03:22:35 PM 38.4883 -122.2981 North 239 275 12,900 787 Climbing Oakland Center
Mon 03:23:36 PM 38.5464 -122.2869 North 220 253 13,800 976 Climbing Oakland Center
Mon 03:24:38 PM 38.6133 -122.2744 North 205 236 14,900 1,024 Climbing Oakland Center
Mon 03:25:39 PM 38.6703 -122.2636 North 205 236 15,900 1,082 Climbing Oakland Center
Mon 03:26:40 PM 38.7203 -122.2553 North 189 217 17,100 976 Climbing Oakland Center
Mon 03:27:42 PM 38.7731 -122.2464 North 189 217 17,900 780 Climbing Oakland Center
Mon 03:28:43 PM 38.8297 -122.2347 North 199 229 18,700 738 Climbing Oakland Center
Mon 03:29:44 PM 38.8886 -122.2244 North 209 241 19,400 683 Climbing Oakland Center
Mon 03:30:46 PM 38.9486 -122.2133 North 213 245 20,100 683 Climbing Oakland Center
Mon 03:31:47 PM 39.0053 -122.2036 North 210 242 20,800 738 Climbing Oakland Center
Mon 03:32:00 PM 39.0354 -122.1969 North  Level FlightAware Approximate
Mon 03:32:48 PM 39.0756 -122.1906 North 209 241 21,600  Level Oakland Center
Mon 03:33:50 PM 39.1397 -122.1786 North 221 254 22,200 585 Climbing Oakland Center
Mon 03:34:51 PM 39.2006 -122.1675 North 222 255 22,800 590 Climbing Oakland Center
Mon 03:35:52 PM 39.2628 -122.1569 North 223 257 23,400 537 Climbing Oakland Center
Mon 03:36:54 PM 39.3253 -122.1436 North 226 260 23,900 293 Climbing Oakland Center
Mon 03:37:55 PM 39.3900 -122.1308 North 233 268 24,000 49 Climbing Oakland Center
Mon 03:38:56 PM 39.4592 -122.1200 North 246 283 24,000  Level Oakland Center
Mon 03:39:58 PM 39.5281 -122.1028 11° North 257 296 24,000  Level Oakland Center
Mon 03:40:59 PM 39.6133 -122.0878 North 255 293 24,000  Level Oakland Center
Mon 03:42:00 PM 39.6819 -122.0753 North 248 285 24,000  Level Oakland Center
Mon 03:43:01 PM 39.7492 -122.0622 North 244 281 24,000  Level Oakland Center
Mon 03:44:03 PM 39.8144 -122.0494 North 239 275 24,000  Level Oakland Center
Mon 03:45:04 PM 39.8786 -122.0372 North 234 269 24,000  Level Oakland Center
Mon 03:46:05 PM 39.9417 -122.0253 North 231 266 24,000  Level Oakland Center
Mon 03:47:07 PM 40.0044 -122.0133 North 229 264 24,000  Level Oakland Center
Mon 03:48:08 PM 40.0661 -122.0014 North 226 260 24,000  Level Oakland Center
Mon 03:49:09 PM 40.1414 -121.9867 North 230 265 24,000  Level Oakland Center
Mon 03:50:10 PM 40.2047 -121.9761 North 230 265 24,000  Level Oakland Center
Mon 03:51:12 PM 40.2664 -121.9625 10° North 227 261 24,000  Level Oakland Center
Mon 03:52:13 PM 40.3267 -121.9519 North 221 254 24,000  Level Oakland Center
Mon 03:53:14 PM 40.3864 -121.9411 North 219 252 24,000  Level Oakland Center
Mon 03:54:16 PM 40.4469 -121.9300 North 220 253 24,000  Level Oakland Center
Mon 03:55:17 PM 40.5086 -121.9169 North 225 259 24,000  Level Oakland Center
Mon 03:56:18 PM 40.5706 -121.9050 North 226 260 24,000  Level Oakland Center
Mon 03:57:19 PM 40.6439 -121.8903 North 222 255 24,000  Level Oakland Center
Mon 03:58:21 PM 40.7047 -121.8786 North 222 255 24,000  Level Oakland Center
Mon 03:59:22 PM 40.7644 -121.8675 North 218 251 24,000  Level Oakland Center
Mon 04:00:23 PM 40.8239 -121.8553 North 217 250 24,000  Level Oakland Center
Mon 04:01:24 PM 40.8850 -121.8433 North 220 253 24,000  Level Oakland Center
Mon 04:02:26 PM 40.9461 -121.8306 North 221 254 24,000  Level Oakland Center
Mon 04:03:27 PM 41.0086 -121.8186 North 225 259 24,000  Level Oakland Center
Mon 04:04:28 PM 41.0708 -121.8072 North 225 259 24,000  Level Oakland Center
Mon 04:05:30 PM 41.1336 -121.7997 North 226 260 24,000  Level Oakland Center
Mon 04:05:47 PM 41.1583 -121.7944 North 224 258 24,000  Level Seattle Center
Mon 04:06:48 PM 41.2206 -121.7817 North 226 260 24,000  Level Seattle Center
Mon 04:07:49 PM 41.2825 -121.7694 North 225 259 24,000  Level Seattle Center
Mon 04:08:50 PM 41.3425 -121.7567 North 221 254 24,000  Level Seattle Center
Mon 04:09:51 PM 41.4017 -121.7458 North 214 246 24,000  Level Seattle Center
Mon 04:10:52 PM 41.4597 -121.7347 North 212 244 24,000  Level Seattle Center
Mon 04:11:53 PM 41.5181 -121.7228 North 213 245 24,000  Level Seattle Center
Mon 04:12:54 PM 41.5775 -121.7097 North 216 249 24,000  Level Seattle Center
Mon 04:13:55 PM 41.6381 -121.6986 North 220 253 24,000  Level Seattle Center
Mon 04:14:56 PM 41.6978 -121.6861 North 219 252 24,000  Level Seattle Center
Mon 04:15:57 PM 41.7675 -121.6714 North 214 246 24,000  Level Seattle Center
Mon 04:16:58 PM 41.8267 -121.6606 North 216 249 24,000  Level Seattle Center
Mon 04:17:59 PM 41.8853 -121.6497 North 214 246 24,000  Level Seattle Center
Mon 04:19:00 PM 41.9431 -121.6381 North 212 244 24,000  Level Seattle Center
Mon 04:20:01 PM 41.9994 -121.6239 11° North 210 242 24,000  Level Seattle Center
Mon 04:21:02 PM 42.0569 -121.6133 North 210 242 24,000  Level Seattle Center
Mon 04:22:03 PM 42.1156 -121.6019 North 213 245 24,000  Level Seattle Center
Mon 04:23:04 PM 42.1736 -121.5883 10° North 213 245 24,000  Level Seattle Center
Mon 04:24:05 PM 42.2311 -121.5767 North 211 243 24,000  Level Seattle Center
Mon 04:25:06 PM 42.2894 -121.5664 North 212 244 24,000  Level Seattle Center
Mon 04:26:07 PM 42.3597 -121.5500 10° North 214 246 24,000 -197 Level Seattle Center
Mon 04:27:08 PM 42.4183 -121.5375 North 214 246 23,600 -492 Descending Seattle Center
Mon 04:28:09 PM 42.4825 -121.5242 North 227 261 23,000 -541 Descending Seattle Center
Mon 04:29:10 PM 42.5481 -121.5094 North 237 273 22,500 -443 Descending Seattle Center
Mon 04:30:11 PM 42.6111 -121.4975 North 231 266 22,100 -246 Descending Seattle Center
Mon 04:31:12 PM 42.6731 -121.4839 North 226 260 22,000 -49 Descending Seattle Center
Mon 04:32:13 PM 42.7322 -121.4519 22° Northeast 227 261 22,000 -148 Level Seattle Center
Mon 04:33:14 PM 42.7889 -121.4219 21° North 222 255 21,700 -492 Descending Seattle Center
Mon 04:34:15 PM 42.8481 -121.3908 21° North 226 260 21,000 -590 Descending Seattle Center
Mon 04:35:16 PM 42.9092 -121.3681 15° North 229 264 20,500 -590 Descending Seattle Center
Mon 04:36:17 PM 42.9708 -121.3625 North 218 251 19,800 -836 Descending Seattle Center
Mon 04:37:18 PM 43.0289 -121.3522 North 216 249 18,800 -1,033 Descending Seattle Center
Mon 04:38:19 PM 43.0978 -121.3411 North 208 239 17,700 -1,033 Descending Seattle Center
Mon 04:39:20 PM 43.1531 -121.3322 North 202 232 16,700 -1,033 Descending Seattle Center
Mon 04:40:21 PM 43.2067 -121.3236 North 196 226 15,600 -1,131 Descending Seattle Center
Mon 04:41:22 PM 43.2631 -121.3153 North 203 234 14,400 -1,180 Descending Seattle Center
Mon 04:42:23 PM 43.3228 -121.3061 North 214 246 13,200 -1,033 Descending Seattle Center
Mon 04:43:24 PM 43.3828 -121.2958 North 217 250 12,300 -934 Descending Seattle Center
Mon 04:44:25 PM 43.4411 -121.2869 North 214 246 11,300 -984 Descending Seattle Center
Mon 04:45:26 PM 43.5019 -121.2758 North 219 252 10,300 -639 Descending Seattle Center
Mon 04:46:27 PM 43.5650 -121.2642 North 220 253 10,000 -148 Descending Seattle Center
Mon 04:47:28 PM 43.6247 -121.2544 North 217 250 10,000  Level Seattle Center
Mon 04:48:29 PM 43.6842 -121.2450 North 215 247 10,000  Level Seattle Center
Mon 04:49:30 PM 43.7433 -121.2353 North 214 246 10,000  Level Seattle Center
Mon 04:50:31 PM 43.8022 -121.2258 North 213 245 10,000  Level Seattle Center
Mon 04:51:32 PM 43.8606 -121.2161 North 212 244 10,000 -689 Level Seattle Center
Mon 04:52:33 PM 43.9319 -121.2028 North 213 245 8,600 -984 Descending Seattle Center
Mon 04:53:34 PM 43.9942 -121.1919 North 219 252 8,000 -639 Descending Seattle Center
Mon 04:54:35 PM 44.0536 -121.1831 North 219 252 7,300 -738 Descending Seattle Center
Mon 04:55:36 PM 44.1117 -121.1669 11° North 217 250 6,500 -1,082 Descending Seattle Center
Mon 04:56:37 PM 44.1667 -121.1389 20° North 214 246 5,100 -1,377 Descending Seattle Center

Login

Don't have an account? Register now (free) for customized features, flight alerts, and more!